sensor_id;sensor_type;location;lat;lon;timestamp;temperature;humidity
17728;DHT22;8984;49.268;12.302;2022-07-29T00:00:53;21.80;88.10
17728;DHT22;8984;49.268;12.302;2022-07-29T00:03:19;21.80;88.60
17728;DHT22;8984;49.268;12.302;2022-07-29T00:05:46;21.70;88.70
17728;DHT22;8984;49.268;12.302;2022-07-29T00:08:13;21.70;89.00
17728;DHT22;8984;49.268;12.302;2022-07-29T00:10:41;21.70;89.00
17728;DHT22;8984;49.268;12.302;2022-07-29T00:13:09;21.70;89.00
17728;DHT22;8984;49.268;12.302;2022-07-29T00:15:36;21.70;89.00
17728;DHT22;8984;49.268;12.302;2022-07-29T00:18:02;21.70;89.20
17728;DHT22;8984;49.268;12.302;2022-07-29T00:20:29;21.70;89.10
17728;DHT22;8984;49.268;12.302;2022-07-29T00:22:56;21.70;88.90
17728;DHT22;8984;49.268;12.302;2022-07-29T00:25:23;21.60;88.90
17728;DHT22;8984;49.268;12.302;2022-07-29T00:27:50;21.60;88.70
17728;DHT22;8984;49.268;12.302;2022-07-29T00:30:18;21.60;88.70
17728;DHT22;8984;49.268;12.302;2022-07-29T00:32:45;21.60;89.60
17728;DHT22;8984;49.268;12.302;2022-07-29T00:35:12;21.40;90.10
17728;DHT22;8984;49.268;12.302;2022-07-29T00:37:56;21.40;90.10
17728;DHT22;8984;49.268;12.302;2022-07-29T00:40:23;21.30;90.20
17728;DHT22;8984;49.268;12.302;2022-07-29T00:42:51;21.40;90.20
17728;DHT22;8984;49.268;12.302;2022-07-29T00:45:19;21.30;89.90
17728;DHT22;8984;49.268;12.302;2022-07-29T00:47:47;21.40;89.80
17728;DHT22;8984;49.268;12.302;2022-07-29T00:50:14;21.30;89.50
17728;DHT22;8984;49.268;12.302;2022-07-29T00:52:42;21.40;89.90
17728;DHT22;8984;49.268;12.302;2022-07-29T00:55:10;21.40;90.60
17728;DHT22;8984;49.268;12.302;2022-07-29T00:57:38;21.40;90.50
17728;DHT22;8984;49.268;12.302;2022-07-29T01:00:07;21.40;90.50
17728;DHT22;8984;49.268;12.302;2022-07-29T01:02:36;21.40;90.40
17728;DHT22;8984;49.268;12.302;2022-07-29T01:05:04;21.50;90.30
17728;DHT22;8984;49.268;12.302;2022-07-29T01:07:32;21.50;90.10
17728;DHT22;8984;49.268;12.302;2022-07-29T01:10:02;21.50;90.10
17728;DHT22;8984;49.268;12.302;2022-07-29T01:12:30;21.50;90.20
17728;DHT22;8984;49.268;12.302;2022-07-29T01:14:59;21.50;90.50
17728;DHT22;8984;49.268;12.302;2022-07-29T01:17:28;21.50;90.60
17728;DHT22;8984;49.268;12.302;2022-07-29T01:20:03;21.50;90.70
17728;DHT22;8984;49.268;12.302;2022-07-29T01:22:46;21.50;90.80
17728;DHT22;8984;49.268;12.302;2022-07-29T01:28:49;21.50;90.60
17728;DHT22;8984;49.268;12.302;2022-07-29T01:31:22;21.50;90.70
17728;DHT22;8984;49.268;12.302;2022-07-29T01:33:57;21.40;91.00
17728;DHT22;8984;49.268;12.302;2022-07-29T01:36:31;21.40;91.20
17728;DHT22;8984;49.268;12.302;2022-07-29T01:39:04;21.40;91.20
17728;DHT22;8984;49.268;12.302;2022-07-29T01:41:32;21.30;91.40
17728;DHT22;8984;49.268;12.302;2022-07-29T01:44:07;21.30;91.30
17728;DHT22;8984;49.268;12.302;2022-07-29T01:46:40;21.30;91.30
17728;DHT22;8984;49.268;12.302;2022-07-29T01:49:11;21.30;91.60
17728;DHT22;8984;49.268;12.302;2022-07-29T01:51:43;21.20;91.30
17728;DHT22;8984;49.268;12.302;2022-07-29T01:54:18;21.30;90.90
17728;DHT22;8984;49.268;12.302;2022-07-29T01:56:47;21.30;90.90
17728;DHT22;8984;49.268;12.302;2022-07-29T01:59:16;21.30;90.70
17728;DHT22;8984;49.268;12.302;2022-07-29T02:01:45;21.30;90.70
17728;DHT22;8984;49.268;12.302;2022-07-29T02:04:15;21.30;90.90
17728;DHT22;8984;49.268;12.302;2022-07-29T02:06:44;21.30;91.10
17728;DHT22;8984;49.268;12.302;2022-07-29T02:09:13;21.40;91.00
17728;DHT22;8984;49.268;12.302;2022-07-29T02:11:43;21.40;90.90
17728;DHT22;8984;49.268;12.302;2022-07-29T02:14:15;21.40;91.00
17728;DHT22;8984;49.268;12.302;2022-07-29T02:16:45;21.30;91.50
17728;DHT22;8984;49.268;12.302;2022-07-29T02:19:14;21.30;91.60
17728;DHT22;8984;49.268;12.302;2022-07-29T02:21:42;21.20;91.70
17728;DHT22;8984;49.268;12.302;2022-07-29T02:24:11;21.20;91.80
17728;DHT22;8984;49.268;12.302;2022-07-29T02:26:40;21.10;91.60
17728;DHT22;8984;49.268;12.302;2022-07-29T02:29:08;21.20;91.50
17728;DHT22;8984;49.268;12.302;2022-07-29T02:31:38;20.90;92.50
17728;DHT22;8984;49.268;12.302;2022-07-29T02:34:08;20.90;92.20
17728;DHT22;8984;49.268;12.302;2022-07-29T02:36:36;20.90;92.20
17728;DHT22;8984;49.268;12.302;2022-07-29T02:39:04;21.00;91.80
17728;DHT22;8984;49.268;12.302;2022-07-29T02:41:37;21.00;91.70
17728;DHT22;8984;49.268;12.302;2022-07-29T02:44:10;21.10;91.70
17728;DHT22;8984;49.268;12.302;2022-07-29T02:46:43;21.10;91.70
17728;DHT22;8984;49.268;12.302;2022-07-29T02:49:16;21.10;91.70
17728;DHT22;8984;49.268;12.302;2022-07-29T02:51:46;21.10;91.70
17728;DHT22;8984;49.268;12.302;2022-07-29T02:54:27;21.10;91.80
17728;DHT22;8984;49.268;12.302;2022-07-29T02:56:59;21.00;91.90
17728;DHT22;8984;49.268;12.302;2022-07-29T02:59:27;21.00;92.00
17728;DHT22;8984;49.268;12.302;2022-07-29T03:01:59;20.90;92.30
17728;DHT22;8984;49.268;12.302;2022-07-29T03:04:27;20.90;92.20
17728;DHT22;8984;49.268;12.302;2022-07-29T03:06:58;20.90;91.90
17728;DHT22;8984;49.268;12.302;2022-07-29T03:09:25;20.80;91.80
17728;DHT22;8984;49.268;12.302;2022-07-29T03:11:54;20.80;92.30
17728;DHT22;8984;49.268;12.302;2022-07-29T03:14:21;20.80;92.60
17728;DHT22;8984;49.268;12.302;2022-07-29T03:16:49;20.70;92.70
17728;DHT22;8984;49.268;12.302;2022-07-29T03:19:19;20.70;92.80
17728;DHT22;8984;49.268;12.302;2022-07-29T03:21:46;20.70;92.70
17728;DHT22;8984;49.268;12.302;2022-07-29T03:24:25;20.70;92.70
17728;DHT22;8984;49.268;12.302;2022-07-29T03:26:52;20.70;93.00
17728;DHT22;8984;49.268;12.302;2022-07-29T03:29:18;20.60;92.90
17728;DHT22;8984;49.268;12.302;2022-07-29T03:31:45;20.60;93.10
17728;DHT22;8984;49.268;12.302;2022-07-29T03:34:12;20.60;93.10
17728;DHT22;8984;49.268;12.302;2022-07-29T03:36:40;20.60;93.20
17728;DHT22;8984;49.268;12.302;2022-07-29T03:39:07;20.60;92.90
17728;DHT22;8984;49.268;12.302;2022-07-29T03:41:36;20.60;93.00
17728;DHT22;8984;49.268;12.302;2022-07-29T03:44:03;20.50;93.00
17728;DHT22;8984;49.268;12.302;2022-07-29T03:46:32;20.50;93.10
17728;DHT22;8984;49.268;12.302;2022-07-29T03:49:01;20.50;93.00
17728;DHT22;8984;49.268;12.302;2022-07-29T03:51:30;20.50;93.10
17728;DHT22;8984;49.268;12.302;2022-07-29T03:53:58;20.50;93.30
17728;DHT22;8984;49.268;12.302;2022-07-29T03:56:27;20.50;93.30
17728;DHT22;8984;49.268;12.302;2022-07-29T03:58:54;20.50;93.60
17728;DHT22;8984;49.268;12.302;2022-07-29T04:01:22;20.50;93.70
17728;DHT22;8984;49.268;12.302;2022-07-29T04:03:50;20.40;93.90
17728;DHT22;8984;49.268;12.302;2022-07-29T04:06:17;20.50;93.80
17728;DHT22;8984;49.268;12.302;2022-07-29T04:08:44;20.40;93.70
17728;DHT22;8984;49.268;12.302;2022-07-29T04:11:12;20.40;93.60
17728;DHT22;8984;49.268;12.302;2022-07-29T04:13:39;20.40;93.50
17728;DHT22;8984;49.268;12.302;2022-07-29T04:16:06;20.40;93.40
17728;DHT22;8984;49.268;12.302;2022-07-29T04:18:33;20.50;93.60
17728;DHT22;8984;49.268;12.302;2022-07-29T04:21:00;20.70;93.70
17728;DHT22;8984;49.268;12.302;2022-07-29T04:23:26;20.70;94.00
17728;DHT22;8984;49.268;12.302;2022-07-29T04:25:53;20.70;93.80
17728;DHT22;8984;49.268;12.302;2022-07-29T04:28:21;20.70;93.80
17728;DHT22;8984;49.268;12.302;2022-07-29T04:30:48;20.80;93.80
17728;DHT22;8984;49.268;12.302;2022-07-29T04:33:15;20.80;93.70
17728;DHT22;8984;49.268;12.302;2022-07-29T04:35:42;20.90;93.60
17728;DHT22;8984;49.268;12.302;2022-07-29T04:38:09;21.00;93.50
17728;DHT22;8984;49.268;12.302;2022-07-29T04:40:36;21.00;93.40
17728;DHT22;8984;49.268;12.302;2022-07-29T04:43:02;21.00;93.70
17728;DHT22;8984;49.268;12.302;2022-07-29T04:45:30;21.00;94.00
17728;DHT22;8984;49.268;12.302;2022-07-29T04:47:57;21.00;94.00
17728;DHT22;8984;49.268;12.302;2022-07-29T04:50:24;21.00;93.90
17728;DHT22;8984;49.268;12.302;2022-07-29T04:52:51;21.00;93.80
17728;DHT22;8984;49.268;12.302;2022-07-29T04:55:18;21.00;93.60
17728;DHT22;8984;49.268;12.302;2022-07-29T04:57:44;21.00;93.40
17728;DHT22;8984;49.268;12.302;2022-07-29T05:00:12;21.10;93.60
17728;DHT22;8984;49.268;12.302;2022-07-29T05:02:40;21.20;93.80
17728;DHT22;8984;49.268;12.302;2022-07-29T05:05:08;21.10;93.80
17728;DHT22;8984;49.268;12.302;2022-07-29T05:07:35;21.20;93.60
17728;DHT22;8984;49.268;12.302;2022-07-29T05:10:02;21.30;93.40
17728;DHT22;8984;49.268;12.302;2022-07-29T05:12:28;21.30;93.70
17728;DHT22;8984;49.268;12.302;2022-07-29T05:14:55;21.30;93.60
17728;DHT22;8984;49.268;12.302;2022-07-29T05:17:22;21.30;93.60
17728;DHT22;8984;49.268;12.302;2022-07-29T05:19:50;21.30;93.60
17728;DHT22;8984;49.268;12.302;2022-07-29T05:22:17;21.30;93.80
17728;DHT22;8984;49.268;12.302;2022-07-29T05:24:44;21.20;93.90
17728;DHT22;8984;49.268;12.302;2022-07-29T05:27:11;21.30;93.80
17728;DHT22;8984;49.268;12.302;2022-07-29T05:29:38;21.30;93.90
17728;DHT22;8984;49.268;12.302;2022-07-29T05:32:06;21.30;93.80
17728;DHT22;8984;49.268;12.302;2022-07-29T05:34:33;21.10;94.00
17728;DHT22;8984;49.268;12.302;2022-07-29T05:37:01;21.10;93.80
17728;DHT22;8984;49.268;12.302;2022-07-29T05:39:28;21.10;93.90
17728;DHT22;8984;49.268;12.302;2022-07-29T05:41:54;20.70;94.50
17728;DHT22;8984;49.268;12.302;2022-07-29T05:44:21;20.70;94.40
17728;DHT22;8984;49.268;12.302;2022-07-29T05:46:48;20.60;94.50
17728;DHT22;8984;49.268;12.302;2022-07-29T05:49:15;20.70;94.50
17728;DHT22;8984;49.268;12.302;2022-07-29T05:51:41;20.70;94.40
17728;DHT22;8984;49.268;12.302;2022-07-29T05:54:10;20.70;94.70
17728;DHT22;8984;49.268;12.302;2022-07-29T05:56:36;20.80;94.50
17728;DHT22;8984;49.268;12.302;2022-07-29T05:59:03;20.80;94.40
17728;DHT22;8984;49.268;12.302;2022-07-29T06:01:30;20.90;94.30
17728;DHT22;8984;49.268;12.302;2022-07-29T06:03:57;20.80;94.60
17728;DHT22;8984;49.268;12.302;2022-07-29T06:06:24;20.80;94.50
17728;DHT22;8984;49.268;12.302;2022-07-29T06:08:51;20.90;94.40
17728;DHT22;8984;49.268;12.302;2022-07-29T06:11:19;20.90;94.30
17728;DHT22;8984;49.268;12.302;2022-07-29T06:13:45;20.90;94.40
17728;DHT22;8984;49.268;12.302;2022-07-29T06:16:12;21.00;94.70
17728;DHT22;8984;49.268;12.302;2022-07-29T06:18:39;21.00;94.40
17728;DHT22;8984;49.268;12.302;2022-07-29T06:21:08;21.00;94.50
17728;DHT22;8984;49.268;12.302;2022-07-29T06:23:35;21.00;94.30
17728;DHT22;8984;49.268;12.302;2022-07-29T06:26:03;21.20;94.10
17728;DHT22;8984;49.268;12.302;2022-07-29T06:28:31;21.30;94.00
17728;DHT22;8984;49.268;12.302;2022-07-29T06:30:58;21.40;94.20
17728;DHT22;8984;49.268;12.302;2022-07-29T06:33:25;21.40;94.40
17728;DHT22;8984;49.268;12.302;2022-07-29T06:35:52;21.50;94.20
17728;DHT22;8984;49.268;12.302;2022-07-29T06:38:18;21.60;93.40
17728;DHT22;8984;49.268;12.302;2022-07-29T06:40:45;21.70;93.10
17728;DHT22;8984;49.268;12.302;2022-07-29T06:43:29;21.70;93.10
17728;DHT22;8984;49.268;12.302;2022-07-29T06:45:59;21.70;93.00
17728;DHT22;8984;49.268;12.302;2022-07-29T06:48:27;21.80;92.90
17728;DHT22;8984;49.268;12.302;2022-07-29T06:50:54;21.90;92.70
17728;DHT22;8984;49.268;12.302;2022-07-29T06:53:21;22.00;94.10
17728;DHT22;8984;49.268;12.302;2022-07-29T06:55:48;22.10;94.50
17728;DHT22;8984;49.268;12.302;2022-07-29T06:58:15;22.20;94.10
17728;DHT22;8984;49.268;12.302;2022-07-29T07:00:43;22.20;93.40
17728;DHT22;8984;49.268;12.302;2022-07-29T07:03:12;22.40;92.90
17728;DHT22;8984;49.268;12.302;2022-07-29T07:05:38;22.50;92.60
17728;DHT22;8984;49.268;12.302;2022-07-29T07:08:05;22.60;92.50
17728;DHT22;8984;49.268;12.302;2022-07-29T07:10:33;22.70;92.20
17728;DHT22;8984;49.268;12.302;2022-07-29T07:13:00;22.90;92.10
17728;DHT22;8984;49.268;12.302;2022-07-29T07:15:27;23.00;91.90
17728;DHT22;8984;49.268;12.302;2022-07-29T07:17:54;23.10;91.80
17728;DHT22;8984;49.268;12.302;2022-07-29T07:20:23;23.10;91.30
17728;DHT22;8984;49.268;12.302;2022-07-29T07:22:50;23.10;90.80
17728;DHT22;8984;49.268;12.302;2022-07-29T07:25:16;23.10;90.50
17728;DHT22;8984;49.268;12.302;2022-07-29T07:27:44;23.10;90.50
17728;DHT22;8984;49.268;12.302;2022-07-29T07:30:12;23.20;90.60
17728;DHT22;8984;49.268;12.302;2022-07-29T07:32:39;23.20;90.40
17728;DHT22;8984;49.268;12.302;2022-07-29T07:35:08;23.20;90.70
17728;DHT22;8984;49.268;12.302;2022-07-29T07:37:36;23.30;90.30
17728;DHT22;8984;49.268;12.302;2022-07-29T07:40:04;23.30;90.20
17728;DHT22;8984;49.268;12.302;2022-07-29T07:42:31;23.40;90.10
17728;DHT22;8984;49.268;12.302;2022-07-29T07:44:59;23.40;90.30
17728;DHT22;8984;49.268;12.302;2022-07-29T07:47:26;23.50;90.80
17728;DHT22;8984;49.268;12.302;2022-07-29T07:49:53;23.40;91.60
17728;DHT22;8984;49.268;12.302;2022-07-29T07:52:20;23.40;91.80
17728;DHT22;8984;49.268;12.302;2022-07-29T07:54:49;23.30;92.00
17728;DHT22;8984;49.268;12.302;2022-07-29T07:57:17;23.30;92.30
17728;DHT22;8984;49.268;12.302;2022-07-29T07:59:44;23.20;92.30
17728;DHT22;8984;49.268;12.302;2022-07-29T08:02:10;23.10;92.60
17728;DHT22;8984;49.268;12.302;2022-07-29T08:04:37;23.00;93.00
17728;DHT22;8984;49.268;12.302;2022-07-29T08:07:06;23.00;93.30
17728;DHT22;8984;49.268;12.302;2022-07-29T08:09:34;22.90;93.20
17728;DHT22;8984;49.268;12.302;2022-07-29T08:12:03;22.80;93.90
17728;DHT22;8984;49.268;12.302;2022-07-29T08:14:31;22.80;93.90
17728;DHT22;8984;49.268;12.302;2022-07-29T08:16:58;22.80;94.00
17728;DHT22;8984;49.268;12.302;2022-07-29T08:19:25;22.90;94.10
17728;DHT22;8984;49.268;12.302;2022-07-29T08:21:52;23.10;94.20
17728;DHT22;8984;49.268;12.302;2022-07-29T08:24:19;23.00;94.50
17728;DHT22;8984;49.268;12.302;2022-07-29T08:27:05;23.10;94.90
17728;DHT22;8984;49.268;12.302;2022-07-29T08:29:32;23.10;94.90
17728;DHT22;8984;49.268;12.302;2022-07-29T08:31:59;23.20;94.90
17728;DHT22;8984;49.268;12.302;2022-07-29T08:34:26;23.30;94.80
17728;DHT22;8984;49.268;12.302;2022-07-29T08:36:54;23.50;94.90
17728;DHT22;8984;49.268;12.302;2022-07-29T08:39:21;23.50;94.90
17728;DHT22;8984;49.268;12.302;2022-07-29T08:41:47;23.60;95.00
17728;DHT22;8984;49.268;12.302;2022-07-29T08:44:17;23.60;94.90
17728;DHT22;8984;49.268;12.302;2022-07-29T08:46:44;23.50;95.50
17728;DHT22;8984;49.268;12.302;2022-07-29T08:49:11;23.30;95.80
17728;DHT22;8984;49.268;12.302;2022-07-29T08:51:39;23.30;95.90
17728;DHT22;8984;49.268;12.302;2022-07-29T08:54:08;23.30;96.20
17728;DHT22;8984;49.268;12.302;2022-07-29T08:56:36;23.10;96.40
17728;DHT22;8984;49.268;12.302;2022-07-29T08:59:04;22.90;97.10
17728;DHT22;8984;49.268;12.302;2022-07-29T09:01:33;22.70;97.70
17728;DHT22;8984;49.268;12.302;2022-07-29T09:04:05;22.60;98.20
17728;DHT22;8984;49.268;12.302;2022-07-29T09:06:37;22.50;98.60
17728;DHT22;8984;49.268;12.302;2022-07-29T09:09:05;22.30;99.40
17728;DHT22;8984;49.268;12.302;2022-07-29T09:11:33;22.30;99.70
17728;DHT22;8984;49.268;12.302;2022-07-29T09:14:00;21.70;99.90
17728;DHT22;8984;49.268;12.302;2022-07-29T09:16:44;22.10;99.90
17728;DHT22;8984;49.268;12.302;2022-07-29T09:19:23;22.50;99.90
17728;DHT22;8984;49.268;12.302;2022-07-29T09:21:52;22.80;99.90
17728;DHT22;8984;49.268;12.302;2022-07-29T09:24:37;23.10;99.90
17728;DHT22;8984;49.268;12.302;2022-07-29T09:27:10;23.30;99.90
17728;DHT22;8984;49.268;12.302;2022-07-29T09:29:37;23.20;99.90
17728;DHT22;8984;49.268;12.302;2022-07-29T09:32:09;23.20;99.90
17728;DHT22;8984;49.268;12.302;2022-07-29T09:34:36;23.40;99.90
17728;DHT22;8984;49.268;12.302;2022-07-29T09:37:03;23.80;99.40
17728;DHT22;8984;49.268;12.302;2022-07-29T09:39:32;24.40;98.60
17728;DHT22;8984;49.268;12.302;2022-07-29T09:42:00;24.70;98.00
17728;DHT22;8984;49.268;12.302;2022-07-29T09:44:41;25.00;97.30
17728;DHT22;8984;49.268;12.302;2022-07-29T09:47:09;25.20;97.00
17728;DHT22;8984;49.268;12.302;2022-07-29T09:49:51;25.30;96.60
17728;DHT22;8984;49.268;12.302;2022-07-29T09:52:19;25.30;96.30
17728;DHT22;8984;49.268;12.302;2022-07-29T09:54:46;25.50;95.90
17728;DHT22;8984;49.268;12.302;2022-07-29T09:57:25;25.60;95.90
17728;DHT22;8984;49.268;12.302;2022-07-29T09:59:56;25.80;95.50
17728;DHT22;8984;49.268;12.302;2022-07-29T10:02:30;25.90;95.60
17728;DHT22;8984;49.268;12.302;2022-07-29T10:04:57;26.10;95.50
17728;DHT22;8984;49.268;12.302;2022-07-29T10:07:24;26.10;95.30
17728;DHT22;8984;49.268;12.302;2022-07-29T10:09:53;26.30;95.40
17728;DHT22;8984;49.268;12.302;2022-07-29T10:12:21;26.50;95.10
17728;DHT22;8984;49.268;12.302;2022-07-29T10:14:48;26.70;94.90
17728;DHT22;8984;49.268;12.302;2022-07-29T10:17:16;26.80;95.00
17728;DHT22;8984;49.268;12.302;2022-07-29T10:19:45;26.70;94.70
17728;DHT22;8984;49.268;12.302;2022-07-29T10:22:12;26.60;93.70
17728;DHT22;8984;49.268;12.302;2022-07-29T10:24:39;26.60;94.10
17728;DHT22;8984;49.268;12.302;2022-07-29T10:27:07;26.90;94.10
17728;DHT22;8984;49.268;12.302;2022-07-29T10:29:34;27.00;93.40
17728;DHT22;8984;49.268;12.302;2022-07-29T10:32:18;26.90;93.50
17728;DHT22;8984;49.268;12.302;2022-07-29T10:35:14;26.60;93.50
17728;DHT22;8984;49.268;12.302;2022-07-29T10:38:04;26.70;93.50
17728;DHT22;8984;49.268;12.302;2022-07-29T10:40:41;27.00;93.40
17728;DHT22;8984;49.268;12.302;2022-07-29T10:43:31;27.20;93.50
17728;DHT22;8984;49.268;12.302;2022-07-29T10:46:01;27.40;92.50
17728;DHT22;8984;49.268;12.302;2022-07-29T10:48:29;27.30;92.30
17728;DHT22;8984;49.268;12.302;2022-07-29T10:50:59;27.30;92.40
17728;DHT22;8984;49.268;12.302;2022-07-29T10:53:47;27.60;92.40
17728;DHT22;8984;49.268;12.302;2022-07-29T10:56:24;27.40;92.50
17728;DHT22;8984;49.268;12.302;2022-07-29T10:59:24;27.80;92.30
17728;DHT22;8984;49.268;12.302;2022-07-29T11:01:52;27.90;92.00
17728;DHT22;8984;49.268;12.302;2022-07-29T11:07:25;28.10;91.60
17728;DHT22;8984;49.268;12.302;2022-07-29T11:10:21;28.00;91.30
17728;DHT22;8984;49.268;12.302;2022-07-29T11:12:48;28.10;90.90
17728;DHT22;8984;49.268;12.302;2022-07-29T11:15:17;28.00;91.10
17728;DHT22;8984;49.268;12.302;2022-07-29T11:18:04;28.10;91.30
17728;DHT22;8984;49.268;12.302;2022-07-29T11:20:32;28.00;91.30
17728;DHT22;8984;49.268;12.302;2022-07-29T11:23:01;28.30;91.30
17728;DHT22;8984;49.268;12.302;2022-07-29T11:25:28;28.30;91.10
17728;DHT22;8984;49.268;12.302;2022-07-29T11:28:09;28.70;91.10
17728;DHT22;8984;49.268;12.302;2022-07-29T11:30:47;29.00;90.30
17728;DHT22;8984;49.268;12.302;2022-07-29T11:33:27;29.00;89.70
17728;DHT22;8984;49.268;12.302;2022-07-29T11:36:10;29.10;89.40
17728;DHT22;8984;49.268;12.302;2022-07-29T11:38:39;29.10;89.40
17728;DHT22;8984;49.268;12.302;2022-07-29T11:41:33;28.90;90.60
17728;DHT22;8984;49.268;12.302;2022-07-29T11:44:02;29.10;90.00
17728;DHT22;8984;49.268;12.302;2022-07-29T11:46:43;29.40;89.90
17728;DHT22;8984;49.268;12.302;2022-07-29T11:49:11;29.60;89.10
17728;DHT22;8984;49.268;12.302;2022-07-29T11:51:39;29.60;89.20
17728;DHT22;8984;49.268;12.302;2022-07-29T11:54:12;29.40;88.20
17728;DHT22;8984;49.268;12.302;2022-07-29T11:56:41;29.40;88.70
17728;DHT22;8984;49.268;12.302;2022-07-29T11:59:11;29.50;85.30
17728;DHT22;8984;49.268;12.302;2022-07-29T12:01:52;29.90;84.80
17728;DHT22;8984;49.268;12.302;2022-07-29T12:04:19;29.90;83.90
17728;DHT22;8984;49.268;12.302;2022-07-29T12:06:49;30.20;86.00
17728;DHT22;8984;49.268;12.302;2022-07-29T12:09:18;30.50;85.60
17728;DHT22;8984;49.268;12.302;2022-07-29T12:11:45;30.80;84.60
17728;DHT22;8984;49.268;12.302;2022-07-29T12:14:25;30.90;83.90
17728;DHT22;8984;49.268;12.302;2022-07-29T12:16:52;30.90;84.00
17728;DHT22;8984;49.268;12.302;2022-07-29T12:19:19;30.90;83.80
17728;DHT22;8984;49.268;12.302;2022-07-29T12:21:46;31.10;82.80
17728;DHT22;8984;49.268;12.302;2022-07-29T12:24:14;31.20;81.70
17728;DHT22;8984;49.268;12.302;2022-07-29T12:26:51;30.60;82.30
17728;DHT22;8984;49.268;12.302;2022-07-29T12:29:18;30.60;81.50
17728;DHT22;8984;49.268;12.302;2022-07-29T12:31:46;30.80;82.70
17728;DHT22;8984;49.268;12.302;2022-07-29T12:34:14;30.90;81.80
17728;DHT22;8984;49.268;12.302;2022-07-29T12:36:42;31.00;81.60
17728;DHT22;8984;49.268;12.302;2022-07-29T12:39:09;31.00;82.10
17728;DHT22;8984;49.268;12.302;2022-07-29T12:41:37;31.00;80.40
17728;DHT22;8984;49.268;12.302;2022-07-29T12:44:06;30.60;82.10
17728;DHT22;8984;49.268;12.302;2022-07-29T12:46:33;30.60;80.80
17728;DHT22;8984;49.268;12.302;2022-07-29T12:49:00;30.70;81.50
17728;DHT22;8984;49.268;12.302;2022-07-29T12:51:30;30.70;80.70
17728;DHT22;8984;49.268;12.302;2022-07-29T12:54:06;30.80;80.80
17728;DHT22;8984;49.268;12.302;2022-07-29T12:56:33;30.60;80.60
17728;DHT22;8984;49.268;12.302;2022-07-29T12:59:13;30.40;81.20
17728;DHT22;8984;49.268;12.302;2022-07-29T13:01:40;30.40;81.10
17728;DHT22;8984;49.268;12.302;2022-07-29T13:04:07;30.40;82.50
17728;DHT22;8984;49.268;12.302;2022-07-29T13:06:37;30.60;81.90
17728;DHT22;8984;49.268;12.302;2022-07-29T13:09:08;30.60;81.20
17728;DHT22;8984;49.268;12.302;2022-07-29T13:11:39;30.60;80.70
17728;DHT22;8984;49.268;12.302;2022-07-29T13:14:07;30.60;80.20
17728;DHT22;8984;49.268;12.302;2022-07-29T13:19:33;30.60;80.40
17728;DHT22;8984;49.268;12.302;2022-07-29T13:22:00;30.50;80.10
17728;DHT22;8984;49.268;12.302;2022-07-29T13:24:27;30.60;81.60
17728;DHT22;8984;49.268;12.302;2022-07-29T13:26:54;30.60;81.40
17728;DHT22;8984;49.268;12.302;2022-07-29T13:29:21;30.60;81.10
17728;DHT22;8984;49.268;12.302;2022-07-29T13:31:49;30.70;80.80
17728;DHT22;8984;49.268;12.302;2022-07-29T13:34:16;30.70;81.50
17728;DHT22;8984;49.268;12.302;2022-07-29T13:36:45;30.60;81.80
17728;DHT22;8984;49.268;12.302;2022-07-29T13:39:12;30.60;81.40
17728;DHT22;8984;49.268;12.302;2022-07-29T13:41:39;30.50;81.90
17728;DHT22;8984;49.268;12.302;2022-07-29T13:44:06;30.50;81.70
17728;DHT22;8984;49.268;12.302;2022-07-29T13:46:33;30.40;82.10
17728;DHT22;8984;49.268;12.302;2022-07-29T13:49:01;30.20;82.20
17728;DHT22;8984;49.268;12.302;2022-07-29T13:51:28;30.10;83.50
17728;DHT22;8984;49.268;12.302;2022-07-29T13:53:54;30.00;83.80
17728;DHT22;8984;49.268;12.302;2022-07-29T13:56:21;30.20;83.90
17728;DHT22;8984;49.268;12.302;2022-07-29T13:58:48;30.20;83.50
17728;DHT22;8984;49.268;12.302;2022-07-29T14:01:15;30.20;83.00
17728;DHT22;8984;49.268;12.302;2022-07-29T14:03:42;30.10;83.80
17728;DHT22;8984;49.268;12.302;2022-07-29T14:06:10;29.90;83.40
17728;DHT22;8984;49.268;12.302;2022-07-29T14:08:37;29.90;84.10
17728;DHT22;8984;49.268;12.302;2022-07-29T14:11:04;29.90;84.20
17728;DHT22;8984;49.268;12.302;2022-07-29T14:13:30;30.00;84.70
17728;DHT22;8984;49.268;12.302;2022-07-29T14:15:57;29.90;83.90
17728;DHT22;8984;49.268;12.302;2022-07-29T14:18:24;29.80;84.20
17728;DHT22;8984;49.268;12.302;2022-07-29T14:20:51;29.70;84.70
17728;DHT22;8984;49.268;12.302;2022-07-29T14:23:19;29.60;84.80
17728;DHT22;8984;49.268;12.302;2022-07-29T14:25:46;29.70;86.20
17728;DHT22;8984;49.268;12.302;2022-07-29T14:28:13;29.80;85.90
17728;DHT22;8984;49.268;12.302;2022-07-29T14:30:40;29.90;85.40
17728;DHT22;8984;49.268;12.302;2022-07-29T14:33:07;29.80;85.00
17728;DHT22;8984;49.268;12.302;2022-07-29T14:35:33;29.80;85.00
17728;DHT22;8984;49.268;12.302;2022-07-29T14:38:00;29.80;85.00
17728;DHT22;8984;49.268;12.302;2022-07-29T14:40:28;29.80;85.60
17728;DHT22;8984;49.268;12.302;2022-07-29T14:42:55;29.80;87.20
17728;DHT22;8984;49.268;12.302;2022-07-29T14:45:22;29.80;87.70
17728;DHT22;8984;49.268;12.302;2022-07-29T14:47:49;29.80;88.00
17728;DHT22;8984;49.268;12.302;2022-07-29T14:50:16;29.90;85.50
17728;DHT22;8984;49.268;12.302;2022-07-29T14:52:43;29.90;85.70
17728;DHT22;8984;49.268;12.302;2022-07-29T14:55:10;29.90;86.00
17728;DHT22;8984;49.268;12.302;2022-07-29T14:57:38;29.80;85.70
17728;DHT22;8984;49.268;12.302;2022-07-29T15:00:06;29.90;85.00
17728;DHT22;8984;49.268;12.302;2022-07-29T15:02:34;30.00;84.50
17728;DHT22;8984;49.268;12.302;2022-07-29T15:05:01;29.80;84.20
17728;DHT22;8984;49.268;12.302;2022-07-29T15:07:28;29.80;84.10
17728;DHT22;8984;49.268;12.302;2022-07-29T15:09:55;29.80;84.70
17728;DHT22;8984;49.268;12.302;2022-07-29T15:12:21;29.80;84.60
17728;DHT22;8984;49.268;12.302;2022-07-29T15:14:50;29.60;83.50
17728;DHT22;8984;49.268;12.302;2022-07-29T15:17:17;29.60;83.50
17728;DHT22;8984;49.268;12.302;2022-07-29T15:19:44;29.70;83.20
17728;DHT22;8984;49.268;12.302;2022-07-29T15:22:10;29.60;82.10
17728;DHT22;8984;49.268;12.302;2022-07-29T15:24:37;29.40;82.30
17728;DHT22;8984;49.268;12.302;2022-07-29T15:27:04;29.30;82.40
17728;DHT22;8984;49.268;12.302;2022-07-29T15:29:31;29.20;82.10
17728;DHT22;8984;49.268;12.302;2022-07-29T15:31:59;29.30;82.10
17728;DHT22;8984;49.268;12.302;2022-07-29T15:34:26;29.30;81.70
17728;DHT22;8984;49.268;12.302;2022-07-29T15:36:53;29.40;81.80
17728;DHT22;8984;49.268;12.302;2022-07-29T15:39:20;29.40;81.10
17728;DHT22;8984;49.268;12.302;2022-07-29T15:41:47;29.30;81.40
17728;DHT22;8984;49.268;12.302;2022-07-29T15:44:15;29.40;81.60
17728;DHT22;8984;49.268;12.302;2022-07-29T15:46:41;29.30;81.10
17728;DHT22;8984;49.268;12.302;2022-07-29T15:49:27;29.30;80.60
17728;DHT22;8984;49.268;12.302;2022-07-29T15:51:57;28.90;80.90